createdAt,value
2023-04-27T00:00:51.534Z,2.88
2023-04-27T00:03:18.479Z,3.05
2023-04-27T00:05:45.638Z,3.42
2023-04-27T00:08:12.513Z,3.53
2023-04-27T00:10:39.280Z,3.63
2023-04-27T00:13:06.181Z,3.15
2023-04-27T00:15:33.031Z,3.58
2023-04-27T00:17:59.922Z,3.17
2023-04-27T00:20:26.767Z,3.38
2023-04-27T00:22:53.619Z,4.10
2023-04-27T00:25:20.435Z,3.63
2023-04-27T00:27:47.213Z,3.10
2023-04-27T00:30:14.154Z,3.20
2023-04-27T00:32:42.396Z,3.10
2023-04-27T00:35:10.051Z,4.07
2023-04-27T00:37:36.917Z,3.67
2023-04-27T00:40:06.729Z,3.60
2023-04-27T00:42:34.085Z,3.42
2023-04-27T00:45:00.883Z,3.63
2023-04-27T00:47:29.446Z,3.47
2023-04-27T00:49:56.454Z,4.03
2023-04-27T00:52:23.341Z,3.47
2023-04-27T00:54:52.414Z,4.05
2023-04-27T00:57:19.318Z,3.58
2023-04-27T00:59:46.188Z,3.92
2023-04-27T01:02:13.793Z,4.25
2023-04-27T01:04:41.453Z,3.60
2023-04-27T01:07:08.379Z,3.92
2023-04-27T01:09:35.154Z,4.28
2023-04-27T01:12:03.218Z,4.63
2023-04-27T01:14:30.097Z,3.92
2023-04-27T01:16:56.989Z,4.10
2023-04-27T01:19:23.851Z,3.30
2023-04-27T01:21:50.717Z,4.00
2023-04-27T01:24:17.536Z,4.53
2023-04-27T01:26:44.328Z,3.85
2023-04-27T01:29:11.424Z,3.80
2023-04-27T01:31:38.842Z,4.35
2023-04-27T01:34:06.088Z,3.80
2023-04-27T01:36:32.867Z,3.72
2023-04-27T01:38:59.651Z,3.72
2023-04-27T01:41:26.681Z,4.15
2023-04-27T01:43:53.561Z,3.72
2023-04-27T01:46:20.637Z,4.07
2023-04-27T01:48:47.508Z,3.63
2023-04-27T01:51:15.098Z,4.53
2023-04-27T01:53:42.862Z,3.95
2023-04-27T01:56:10.374Z,3.80
2023-04-27T01:58:37.353Z,3.42
2023-04-27T02:01:04.188Z,4.35
2023-04-27T02:03:31.190Z,3.25
2023-04-27T02:05:58.222Z,4.28
2023-04-27T02:08:25.045Z,3.97
2023-04-27T02:10:51.822Z,4.05
2023-04-27T02:13:18.691Z,3.88
2023-04-27T02:15:45.468Z,4.07
2023-04-27T02:18:12.719Z,3.00
2023-04-27T02:20:39.503Z,4.80
2023-04-27T02:23:06.763Z,3.70
2023-04-27T02:25:36.395Z,4.00
2023-04-27T02:28:03.303Z,4.75
2023-04-27T02:30:30.762Z,3.85
2023-04-27T02:33:01.002Z,4.55
2023-04-27T02:35:27.950Z,3.83
2023-04-27T02:37:54.736Z,4.50
2023-04-27T02:40:21.500Z,4.15
2023-04-27T02:42:48.197Z,4.18
2023-04-27T02:45:15.024Z,3.63
2023-04-27T02:47:41.972Z,3.97
2023-04-27T02:50:09.421Z,3.92
2023-04-27T02:52:36.322Z,4.72
2023-04-27T02:55:03.100Z,4.22
2023-04-27T02:57:29.871Z,4.43
2023-04-27T02:59:56.673Z,4.88
2023-04-27T03:02:23.518Z,4.40
2023-04-27T03:04:54.937Z,3.67
2023-04-27T03:07:22.466Z,4.70
2023-04-27T03:09:49.255Z,4.90
2023-04-27T03:12:16.232Z,4.32
2023-04-27T03:14:43.053Z,4.75
2023-04-27T03:17:09.796Z,3.97
2023-04-27T03:19:36.847Z,4.05
2023-04-27T03:22:03.775Z,4.63
2023-04-27T03:24:30.948Z,4.88
2023-04-27T03:26:57.793Z,5.28
2023-04-27T03:29:24.594Z,5.65
2023-04-27T03:31:51.392Z,4.72
2023-04-27T03:34:18.230Z,4.45
2023-04-27T03:36:44.971Z,5.05
2023-04-27T03:39:12.045Z,4.47
2023-04-27T03:41:39.004Z,5.18
2023-04-27T03:44:07.057Z,4.93
2023-04-27T03:46:34.130Z,5.22
2023-04-27T03:49:00.925Z,4.63
2023-04-27T03:51:27.790Z,4.25
2023-04-27T03:53:54.532Z,3.85
2023-04-27T03:56:21.544Z,5.13
2023-04-27T03:58:48.252Z,4.15
2023-04-27T04:01:16.558Z,5.30
2023-04-27T04:03:43.578Z,4.28
2023-04-27T04:06:10.903Z,5.28
2023-04-27T04:08:37.678Z,5.43
2023-04-27T04:11:04.563Z,4.82
2023-04-27T04:13:31.634Z,7.25
2023-04-27T04:16:06.716Z,6.03
2023-04-27T04:18:34.483Z,5.50
2023-04-27T04:21:01.266Z,4.47
2023-04-27T04:23:28.364Z,4.68
2023-04-27T04:25:58.760Z,4.82
2023-04-27T04:28:25.660Z,5.10
2023-04-27T04:30:52.574Z,4.13
2023-04-27T04:33:19.538Z,5.32
2023-04-27T04:35:47.087Z,5.28
2023-04-27T04:38:14.136Z,4.53
2023-04-27T04:40:44.437Z,3.70
2023-04-27T04:43:13.473Z,4.50
2023-04-27T04:45:40.545Z,4.32
2023-04-27T04:48:07.306Z,4.75
2023-04-27T04:50:34.128Z,5.32
2023-04-27T04:53:00.818Z,6.47
2023-04-27T04:55:28.327Z,4.43
2023-04-27T04:57:55.124Z,5.78
2023-04-27T05:00:22.588Z,6.43
2023-04-27T05:02:50.053Z,4.65
2023-04-27T05:05:17.179Z,4.82
2023-04-27T05:07:44.022Z,6.15
2023-04-27T05:10:11.094Z,5.65
2023-04-27T05:12:37.984Z,4.70
2023-04-27T05:15:05.601Z,5.15
2023-04-27T05:17:32.459Z,5.18
2023-04-27T05:19:59.320Z,5.97
2023-04-27T05:22:26.147Z,5.60
2023-04-27T05:24:52.946Z,5.20
2023-04-27T05:27:19.732Z,6.03
2023-04-27T05:29:46.590Z,5.97
2023-04-27T05:32:13.311Z,5.82
2023-04-27T05:34:41.092Z,4.93
2023-04-27T05:37:07.943Z,6.55
2023-04-27T05:39:34.893Z,5.50
2023-04-27T05:42:03.004Z,6.22
2023-04-27T05:44:29.841Z,5.53
2023-04-27T05:46:57.140Z,5.13
2023-04-27T05:49:23.998Z,4.75
2023-04-27T05:51:51.895Z,4.95
2023-04-27T05:54:18.647Z,4.72
2023-04-27T05:56:45.520Z,5.63
2023-04-27T05:59:12.547Z,5.57
2023-04-27T06:01:39.487Z,5.38
2023-04-27T06:04:07.089Z,4.25
2023-04-27T06:06:35.372Z,5.60
2023-04-27T06:09:02.251Z,5.55
2023-04-27T06:11:29.159Z,5.70
2023-04-27T06:13:56.117Z,5.03
2023-04-27T06:16:23.610Z,4.85
2023-04-27T06:18:51.201Z,5.13
2023-04-27T06:21:17.975Z,4.55
2023-04-27T06:23:44.938Z,5.15
2023-04-27T06:26:11.743Z,4.25
2023-04-27T06:28:38.909Z,4.75
2023-04-27T06:31:06.332Z,3.63
2023-04-27T06:33:33.691Z,3.50
2023-04-27T06:36:01.729Z,3.35
2023-04-27T06:38:28.545Z,2.80
2023-04-27T06:40:55.438Z,3.05
2023-04-27T06:43:23.138Z,3.30
2023-04-27T06:45:49.927Z,3.65
2023-04-27T06:48:17.219Z,2.90
2023-04-27T06:50:44.414Z,3.00
2023-04-27T06:53:11.343Z,2.72
2023-04-27T06:55:38.188Z,2.35
2023-04-27T06:58:05.006Z,2.33
2023-04-27T07:00:31.978Z,3.00
2023-04-27T07:02:59.107Z,2.17
2023-04-27T07:05:26.360Z,2.50
2023-04-27T07:07:53.199Z,3.40
2023-04-27T07:10:20.744Z,2.63
2023-04-27T07:12:47.565Z,2.30
2023-04-27T07:15:15.092Z,2.10
2023-04-27T07:17:42.201Z,2.45
2023-04-27T07:20:09.381Z,2.80
2023-04-27T07:22:36.436Z,2.25
2023-04-27T07:25:04.119Z,2.40
2023-04-27T07:27:31.833Z,2.20
2023-04-27T07:29:59.201Z,2.08
2023-04-27T07:32:26.243Z,2.80
2023-04-27T07:34:55.843Z,2.63
2023-04-27T07:37:24.070Z,2.03
2023-04-27T07:39:54.412Z,2.22
2023-04-27T07:42:25.101Z,2.17
2023-04-27T07:44:52.672Z,2.65
2023-04-27T07:47:19.776Z,1.63
2023-04-27T07:49:47.112Z,2.10
2023-04-27T07:52:14.377Z,1.50
2023-04-27T07:54:41.210Z,1.77
2023-04-27T07:57:10.087Z,1.60
2023-04-27T07:59:37.421Z,1.60
2023-04-27T08:02:18.479Z,1.67
2023-04-27T08:04:48.048Z,2.63
2023-04-27T08:07:17.645Z,2.30
2023-04-27T08:09:44.949Z,1.85
2023-04-27T08:12:11.793Z,1.70
2023-04-27T08:14:38.603Z,1.55
2023-04-27T08:17:05.804Z,1.58
2023-04-27T08:19:32.654Z,2.03
2023-04-27T08:21:59.475Z,2.05
2023-04-27T08:24:26.259Z,2.47
2023-04-27T08:26:53.021Z,1.90
2023-04-27T08:29:27.713Z,1.48
2023-04-27T08:31:56.919Z,2.00
2023-04-27T08:34:24.169Z,2.00
2023-04-27T08:36:51.101Z,2.08
2023-04-27T08:39:18.371Z,1.75
2023-04-27T08:41:46.217Z,1.85
2023-04-27T08:44:13.136Z,1.33
2023-04-27T08:46:40.919Z,1.60
2023-04-27T08:49:08.157Z,2.00
2023-04-27T08:51:35.517Z,1.50
2023-04-27T08:54:02.567Z,1.88
2023-04-27T08:56:30.709Z,1.63
2023-04-27T08:58:58.627Z,2.13
2023-04-27T09:01:27.337Z,1.50
2023-04-27T09:04:02.158Z,1.73
2023-04-27T09:06:38.005Z,1.80
2023-04-27T09:09:05.112Z,1.40
2023-04-27T09:11:38.009Z,1.50
2023-04-27T09:14:18.804Z,1.35
2023-04-27T09:16:45.752Z,1.55
2023-04-27T09:19:24.379Z,1.35
2023-04-27T09:21:51.837Z,1.83
2023-04-27T09:24:18.573Z,1.52
2023-04-27T09:26:50.378Z,1.23
2023-04-27T09:29:17.449Z,1.20
2023-04-27T09:31:44.335Z,1.88
2023-04-27T09:34:11.154Z,1.30
2023-04-27T09:36:39.898Z,1.33
2023-04-27T09:39:06.785Z,1.40
2023-04-27T09:41:34.026Z,2.15
2023-04-27T09:44:02.032Z,1.73
2023-04-27T09:46:30.736Z,1.77
2023-04-27T09:48:58.266Z,1.48
2023-04-27T09:51:25.063Z,1.60
2023-04-27T09:53:56.519Z,1.60
2023-04-27T09:56:41.707Z,1.45
2023-04-27T09:59:23.262Z,1.80
2023-04-27T10:01:56.949Z,1.40
2023-04-27T10:04:23.934Z,1.60
2023-04-27T10:06:57.962Z,1.42
2023-04-27T10:09:25.941Z,2.53
2023-04-27T10:11:54.992Z,1.35
2023-04-27T10:14:23.500Z,1.42
2023-04-27T10:16:54.694Z,1.55
2023-04-27T10:19:23.596Z,1.17
2023-04-27T10:22:00.513Z,2.33
2023-04-27T10:24:38.174Z,1.40
2023-04-27T10:27:06.951Z,1.30
2023-04-27T10:29:42.086Z,1.77
2023-04-27T10:32:25.572Z,1.30
2023-04-27T10:35:03.973Z,1.63
2023-04-27T10:37:44.114Z,1.45
2023-04-27T10:40:17.474Z,1.73
2023-04-27T10:42:46.023Z,1.23
2023-04-27T10:45:13.920Z,1.00
2023-04-27T10:47:44.113Z,0.95
2023-04-27T10:50:16.531Z,1.00
2023-04-27T10:52:46.815Z,0.82
2023-04-27T10:55:23.920Z,0.80
2023-04-27T10:57:51.952Z,0.75
2023-04-27T11:00:25.321Z,0.70
2023-04-27T11:02:54.034Z,1.63
2023-04-27T11:05:33.464Z,1.60
2023-04-27T11:08:10.668Z,0.65
2023-04-27T11:10:43.836Z,0.90
2023-04-27T11:13:11.530Z,1.52
2023-04-27T11:15:44.273Z,0.68
2023-04-27T11:18:11.383Z,1.00
2023-04-27T11:20:38.176Z,1.40
2023-04-27T11:23:05.956Z,1.20
2023-04-27T11:25:32.927Z,1.65
2023-04-27T11:27:59.658Z,1.25
2023-04-27T11:30:26.592Z,1.15
2023-04-27T11:32:53.870Z,1.20
2023-04-27T11:35:20.817Z,1.33
2023-04-27T11:37:58.165Z,1.40
2023-04-27T11:40:25.125Z,1.08
2023-04-27T11:43:04.325Z,1.35
2023-04-27T11:45:31.220Z,1.15
2023-04-27T11:48:01.203Z,1.67
2023-04-27T11:50:27.987Z,1.70
2023-04-27T11:52:55.878Z,1.60
2023-04-27T11:55:22.882Z,2.67
2023-04-27T11:57:49.596Z,1.98
2023-04-27T12:00:17.291Z,1.60
2023-04-27T12:02:44.855Z,1.67
2023-04-27T12:05:13.121Z,1.52
2023-04-27T12:07:41.247Z,1.45
2023-04-27T12:10:08.937Z,1.70
2023-04-27T12:12:36.141Z,2.10
2023-04-27T12:15:03.332Z,1.83
2023-04-27T12:17:30.318Z,1.58
2023-04-27T12:19:57.138Z,1.35
2023-04-27T12:22:23.975Z,0.80
2023-04-27T12:24:51.354Z,1.15
2023-04-27T12:27:18.326Z,0.85
2023-04-27T12:29:45.141Z,1.77
2023-04-27T12:32:12.001Z,1.08
2023-04-27T12:34:39.543Z,1.60
2023-04-27T12:37:07.032Z,1.27
2023-04-27T12:39:34.321Z,1.67
2023-04-27T12:42:01.778Z,1.02
2023-04-27T12:44:28.609Z,1.00
2023-04-27T12:46:56.214Z,1.13
2023-04-27T12:49:23.018Z,1.40
2023-04-27T12:51:51.947Z,1.55
2023-04-27T12:54:18.946Z,1.65
2023-04-27T12:56:47.044Z,1.27
2023-04-27T12:59:13.934Z,0.80
2023-04-27T13:01:40.733Z,1.45
2023-04-27T13:04:08.108Z,1.58
2023-04-27T13:06:35.060Z,1.30
2023-04-27T13:09:02.593Z,1.30
2023-04-27T13:11:29.591Z,1.50
2023-04-27T13:13:56.565Z,1.70
2023-04-27T13:16:25.382Z,1.60
2023-04-27T13:18:53.255Z,1.40
2023-04-27T13:21:20.476Z,1.75
2023-04-27T13:23:47.996Z,1.90
2023-04-27T13:26:16.232Z,1.98
2023-04-27T13:28:43.232Z,1.75
2023-04-27T13:31:10.988Z,1.30
2023-04-27T13:33:43.234Z,1.95
2023-04-27T13:36:11.416Z,1.70
2023-04-27T13:38:38.354Z,1.45
2023-04-27T13:41:05.567Z,1.60
2023-04-27T13:43:33.039Z,1.48
2023-04-27T13:46:01.515Z,1.52
2023-04-27T13:48:29.039Z,1.50
2023-04-27T13:50:56.069Z,1.10
2023-04-27T13:53:26.419Z,1.40
2023-04-27T13:55:54.471Z,2.10
2023-04-27T13:58:22.678Z,3.28
2023-04-27T14:00:52.744Z,2.63
2023-04-27T14:03:20.149Z,1.88
2023-04-27T14:05:48.942Z,1.98
2023-04-27T14:08:15.923Z,1.52
2023-04-27T14:10:45.561Z,1.80
2023-04-27T14:13:12.977Z,1.63
2023-04-27T14:15:39.860Z,1.60
2023-04-27T14:18:08.046Z,1.20
2023-04-27T14:20:36.117Z,1.70
2023-04-27T14:23:04.319Z,1.50
2023-04-27T14:25:34.997Z,1.50
2023-04-27T14:28:04.058Z,1.50
2023-04-27T14:30:35.158Z,1.80
2023-04-27T14:33:03.112Z,1.67
2023-04-27T14:35:30.440Z,1.50
2023-04-27T14:38:01.913Z,1.63
2023-04-27T14:40:30.159Z,1.65
2023-04-27T14:42:58.384Z,2.80
2023-04-27T14:45:27.579Z,1.60
2023-04-27T14:48:00.918Z,2.03
2023-04-27T14:50:28.236Z,2.40
2023-04-27T14:52:58.635Z,2.00
2023-04-27T14:55:25.546Z,1.73
2023-04-27T14:57:52.314Z,1.52
2023-04-27T15:00:19.337Z,1.52
2023-04-27T15:02:46.310Z,1.55
2023-04-27T15:05:13.220Z,2.40
2023-04-27T15:07:40.068Z,1.55
2023-04-27T15:10:07.599Z,1.80
2023-04-27T15:12:34.484Z,1.48
2023-04-27T15:15:01.297Z,1.60
2023-04-27T15:17:28.216Z,1.77
2023-04-27T15:19:55.019Z,1.73
2023-04-27T15:22:23.518Z,2.00
2023-04-27T15:24:50.890Z,1.60
2023-04-27T15:27:17.626Z,1.98
2023-04-27T15:29:44.408Z,2.00
2023-04-27T15:32:11.178Z,2.03
2023-04-27T15:35:23.656Z,2.10
2023-04-27T15:37:51.593Z,2.40
2023-04-27T15:40:18.410Z,2.35
2023-04-27T15:42:45.386Z,2.42
2023-04-27T15:45:12.478Z,2.08
2023-04-27T15:47:39.281Z,2.40
2023-04-27T15:50:06.609Z,2.60
2023-04-27T15:52:33.859Z,2.20
2023-04-27T15:55:04.679Z,2.20
2023-04-27T15:57:31.394Z,2.15
2023-04-27T15:59:58.203Z,2.40
2023-04-27T16:02:25.058Z,2.55
2023-04-27T16:04:54.980Z,2.60
2023-04-27T16:07:21.789Z,2.15
2023-04-27T16:09:48.572Z,2.53
2023-04-27T16:12:15.366Z,2.53
2023-04-27T16:14:42.245Z,2.40
2023-04-27T16:17:09.111Z,2.13
2023-04-27T16:19:35.863Z,2.65
2023-04-27T16:22:04.223Z,2.33
2023-04-27T16:24:31.474Z,4.90
2023-04-27T16:26:58.247Z,3.17
2023-04-27T16:29:25.159Z,1.92
2023-04-27T16:31:53.327Z,2.20
2023-04-27T16:34:20.174Z,2.58
2023-04-27T16:36:48.515Z,2.28
2023-04-27T16:39:15.905Z,2.30
2023-04-27T16:41:43.312Z,2.60
2023-04-27T16:44:12.063Z,3.10
2023-04-27T16:46:38.877Z,3.28
2023-04-27T16:49:05.894Z,2.90
2023-04-27T16:51:33.295Z,3.30
2023-04-27T16:54:00.560Z,2.90
2023-04-27T16:56:28.651Z,3.17
2023-04-27T16:58:55.960Z,3.00
2023-04-27T17:01:25.964Z,2.78
2023-04-27T17:03:53.331Z,3.30
2023-04-27T17:06:20.271Z,2.90
2023-04-27T17:08:53.592Z,3.50
2023-04-27T17:11:20.698Z,2.78
2023-04-27T17:13:49.540Z,2.90
2023-04-27T17:16:17.397Z,2.53
2023-04-27T17:18:45.801Z,2.70
2023-04-27T17:21:13.168Z,3.00
2023-04-27T17:23:41.496Z,3.08
2023-04-27T17:26:08.588Z,2.90
2023-04-27T17:28:35.417Z,3.05
2023-04-27T17:31:02.280Z,2.90
2023-04-27T17:33:29.192Z,3.22
2023-04-27T17:35:55.916Z,3.20
2023-04-27T17:38:22.665Z,2.83
2023-04-27T17:40:49.582Z,3.00
2023-04-27T17:43:16.359Z,2.78
2023-04-27T17:45:43.310Z,2.95
2023-04-27T17:48:10.459Z,3.00
2023-04-27T17:50:37.851Z,3.10
2023-04-27T17:53:04.661Z,2.83
2023-04-27T17:55:31.395Z,2.45
2023-04-27T17:57:58.324Z,3.08
2023-04-27T18:00:25.228Z,3.17
2023-04-27T18:02:52.111Z,2.63
2023-04-27T18:05:19.083Z,3.03
2023-04-27T18:07:50.042Z,4.25
2023-04-27T18:10:16.941Z,4.63
2023-04-27T18:12:43.795Z,3.58
2023-04-27T18:15:10.877Z,3.40
2023-04-27T18:17:38.300Z,4.10
2023-04-27T18:20:09.649Z,3.75
2023-04-27T18:22:39.785Z,3.63
2023-04-27T18:25:07.297Z,4.45
2023-04-27T18:27:34.206Z,4.97
2023-04-27T18:30:01.085Z,3.75
2023-04-27T18:32:27.982Z,4.07
2023-04-27T18:34:56.410Z,4.30
2023-04-27T18:37:42.504Z,4.68
2023-04-27T18:40:12.311Z,4.45
2023-04-27T18:42:39.115Z,4.75
2023-04-27T18:45:09.107Z,5.00
2023-04-27T18:47:36.126Z,6.15
2023-04-27T18:50:05.724Z,6.85
2023-04-27T18:52:32.748Z,5.65
2023-04-27T18:54:59.754Z,4.72
2023-04-27T18:57:26.610Z,5.45
2023-04-27T19:02:41.570Z,4.93
2023-04-27T19:03:37.226Z,5.07
2023-04-27T19:06:09.236Z,6.13
2023-04-27T19:12:06.017Z,9.23
2023-04-27T19:14:33.027Z,8.43
2023-04-27T19:17:01.755Z,8.15
2023-04-27T19:19:28.728Z,7.57
2023-04-27T19:22:05.965Z,7.38
2023-04-27T19:24:33.190Z,7.35
2023-04-27T19:27:00.059Z,8.40
2023-04-27T19:29:27.306Z,7.88
2023-04-27T19:31:57.253Z,8.25
2023-04-27T19:35:26.340Z,8.65
2023-04-27T19:38:23.734Z,7.28
2023-04-27T19:41:18.735Z,8.48
2023-04-27T19:46:53.828Z,7.45
2023-04-27T19:49:23.685Z,5.10
2023-04-27T19:51:50.751Z,5.13
2023-04-27T19:54:17.912Z,5.00
2023-04-27T19:56:47.258Z,5.75
2023-04-27T19:59:17.174Z,4.72
2023-04-27T20:01:44.080Z,4.97
2023-04-27T20:04:11.046Z,5.32
2023-04-27T20:06:38.086Z,4.82
2023-04-27T20:09:05.102Z,5.70
2023-04-27T20:11:31.879Z,6.43
2023-04-27T20:13:58.610Z,5.43
2023-04-27T20:16:28.453Z,6.60
2023-04-27T20:18:55.574Z,4.90
2023-04-27T20:21:22.406Z,5.28
2023-04-27T20:23:49.420Z,4.43
2023-04-27T20:26:16.266Z,4.75
2023-04-27T20:28:43.295Z,4.30
2023-04-27T20:31:10.909Z,4.50
2023-04-27T20:33:37.795Z,4.13
2023-04-27T20:36:14.185Z,4.28
2023-04-27T20:38:44.003Z,4.68
2023-04-27T20:41:12.381Z,4.47
2023-04-27T20:43:39.909Z,4.65
2023-04-27T20:46:08.015Z,4.90
2023-04-27T20:48:34.971Z,4.60
2023-04-27T20:51:02.284Z,4.85
2023-04-27T20:53:29.233Z,4.75
2023-04-27T20:55:56.823Z,4.80
2023-04-27T20:58:23.969Z,4.88
2023-04-27T21:00:50.952Z,4.70
2023-04-27T21:03:17.967Z,5.15
2023-04-27T21:05:45.348Z,5.15
2023-04-27T21:08:12.121Z,5.38
2023-04-27T21:10:38.904Z,5.03
2023-04-27T21:13:05.805Z,4.70
2023-04-27T21:15:33.438Z,4.78
2023-04-27T21:18:00.719Z,4.75
2023-04-27T21:20:27.757Z,4.20
2023-04-27T21:22:54.503Z,4.35
2023-04-27T21:25:23.581Z,4.72
2023-04-27T21:27:50.929Z,4.93
2023-04-27T21:30:17.670Z,4.80
2023-04-27T21:32:44.723Z,4.53
2023-04-27T21:35:11.556Z,5.30
2023-04-27T21:37:38.526Z,7.65
2023-04-27T21:40:06.389Z,4.90
2023-04-27T21:42:33.168Z,4.95
2023-04-27T21:44:59.960Z,6.03
2023-04-27T21:47:26.868Z,6.25
2023-04-27T21:49:53.690Z,5.95
2023-04-27T21:52:21.610Z,6.22
2023-04-27T21:54:48.500Z,6.30
2023-04-27T21:57:16.583Z,5.47
2023-04-27T21:59:44.627Z,5.65
2023-04-27T22:02:11.378Z,5.43
2023-04-27T22:04:39.101Z,5.72
2023-04-27T22:07:08.038Z,4.65
2023-04-27T22:09:35.854Z,5.75
2023-04-27T22:13:18.940Z,5.60
2023-04-27T22:15:46.573Z,5.68
2023-04-27T22:18:14.849Z,5.03
2023-04-27T22:20:42.739Z,5.13
2023-04-27T22:23:09.888Z,6.07
2023-04-27T22:25:37.002Z,5.90
2023-04-27T22:28:03.964Z,6.07
2023-04-27T22:30:31.365Z,5.82
2023-04-27T22:32:58.321Z,5.50
2023-04-27T22:35:27.618Z,5.82
2023-04-27T22:37:55.908Z,6.72
2023-04-27T22:40:22.925Z,6.47
2023-04-27T22:42:49.834Z,5.07
2023-04-27T22:45:16.930Z,6.18
2023-04-27T22:47:44.623Z,5.95
2023-04-27T22:50:12.462Z,6.90
2023-04-27T22:52:42.226Z,7.38
2023-04-27T22:55:11.266Z,7.47
2023-04-27T22:57:38.750Z,5.97
2023-04-27T23:00:09.028Z,6.70
2023-04-27T23:02:36.065Z,5.95
2023-04-27T23:05:03.782Z,6.00
2023-04-27T23:07:30.598Z,5.45
2023-04-27T23:09:57.522Z,5.68
2023-04-27T23:12:26.818Z,4.30
2023-04-27T23:14:53.584Z,5.50
2023-04-27T23:17:22.671Z,6.30
2023-04-27T23:19:49.703Z,5.57
2023-04-27T23:22:16.597Z,5.63
2023-04-27T23:24:43.374Z,5.65
2023-04-27T23:27:10.173Z,7.07
2023-04-27T23:29:37.008Z,5.32
2023-04-27T23:32:04.621Z,7.32
2023-04-27T23:34:34.734Z,8.32
2023-04-27T23:37:01.663Z,39.72
2023-04-27T23:39:28.801Z,20.02
2023-04-27T23:41:55.580Z,17.38
2023-04-27T23:44:22.357Z,8.88
2023-04-27T23:46:49.243Z,6.70
2023-04-27T23:49:15.978Z,5.50
2023-04-27T23:51:54.801Z,5.45
2023-04-27T23:54:21.652Z,5.50
2023-04-27T23:56:50.994Z,6.30
2023-04-27T23:59:18.146Z,5.10
